• Join FlightAware (Why Join?)
  • Login
  • US Flag 
11:27AM EST


 

Airport Tracker/Info


-or-


 

Live Flight TrackerFlight Track Log ✈ N589H ✈ 07-Apr-2014 ✈ KPHL - KPIE

Flight Track Log - Related Links

Times and Time Zones

All times are in EDT time to prevent confusion due to time zone crossing. See the N589H flight status page for this flight to view local times or setup timezone preferences in your user account.

Time Position Orientation Groundspeed Altitude Reporting Facility
EDT Latitude Longitude Course Direction KTS MPH feet Rate Location/Type
03:35PM 39.8833 -75.2000 21° North 135 155 500  Level Philadelphia TRACON
03:36PM 39.9167 -75.1833 21° North 173 199 1,800 1,500 Climbing Philadelphia TRACON
03:37PM 39.9667 -75.1667 14° North 231 266 3,000 540 Climbing Philadelphia TRACON
03:38PM 39.9833 -75.2500 285° West 277 319 2,900 600 Descending Philadelphia TRACON
03:39PM 39.9667 -75.3333 255° West 233 268 4,200 1,500 Climbing Philadelphia TRACON
03:40PM 39.9500 -75.4167 255° West 227 261 6,100 1,620 Climbing Philadelphia TRACON
03:41PM 39.9353 -75.4517 241° Southwest 219 252 6,900 1,560 Climbing New York Center
03:44PM 39.8722 -75.6639 249° West 219 252 11,500 1,500 Climbing New York Center
03:45PM 39.8522 -75.7436 252° West 225 259 12,800 1,320 Climbing New York Center
03:46PM 39.8261 -75.8175 245° Southwest 225 259 14,200 1,440 Climbing New York Center
03:47PM 39.7881 -75.8797 231° Southwest 225 259 15,700 1,200 Climbing New York Center
03:48PM 39.7522 -75.9392 232° Southwest 235 270 16,700 1,080 Climbing New York Center
03:49PM 39.7075 -76.0086 230° Southwest 252 290 17,900 1,380 Climbing New York Center
03:50PM 39.6622 -76.0861 233° Southwest 252 290 19,500 1,380 Climbing New York Center
03:51PM 39.6017 -76.1733 228° Southwest 245 282 21,500 1,320 Climbing Washington Center
03:52PM 39.5639 -76.2375 233° Southwest 234 269 22,900 1,320 Climbing Washington Center
03:53PM 39.5242 -76.2964 229° Southwest 229 264 24,200 1,140 Climbing Washington Center
03:54PM 39.4861 -76.3606 232° Southwest 229 264 25,200 1,020 Climbing Washington Center
03:55PM 39.4483 -76.4219 231° Southwest 229 264 26,300 1,080 Climbing Washington Center
03:56PM 39.4061 -76.4833 228° Southwest 229 264 27,400 840 Climbing Washington Center
03:57PM 39.3597 -76.5553 230° Southwest 236 272 28,000 300 Climbing Washington Center
03:58PM 39.3133 -76.6244 229° Southwest 247 284 28,000  Level Washington Center
03:59PM 39.2667 -76.6989 231° Southwest 257 296 28,000  Level Washington Center
04:00PM 39.2286 -76.7572 230° Southwest 262 302 28,000  Level Washington Center
04:01PM 39.1672 -76.8525 230° Southwest 279 321 28,000  Level Washington Center
04:02PM 39.1269 -76.9161 231° Southwest 284 327 28,000 600 Level Washington Center
04:03PM 39.0675 -77.0086 230° Southwest 284 327 29,200 1,080 Climbing Washington Center
04:04PM 39.0169 -77.0717 224° Southwest 273 314 30,200 960 Climbing Washington Center
04:05PM 38.9642 -77.1267 219° Southwest 255 293 31,200 900 Climbing Washington Center
04:06PM 38.9153 -77.1817 221° Southwest 244 281 32,000 240 Climbing Washington Center
04:08PM 38.8181 -77.2861 220° Southwest 244 281 32,000  Level Washington Center
04:09PM 38.7586 -77.3539 222° Southwest 249 287 32,000  Level Washington Center
04:11PM 38.6358 -77.4814 215° Southwest 272 313 32,000  Level Washington Center
04:12PM 38.5869 -77.5411 224° Southwest 272 313 32,000  Level Washington Center
04:13PM 38.5256 -77.6033 218° Southwest 277 319 32,000  Level Washington Center
04:14PM 38.4703 -77.6681 223° Southwest 277 319 32,000  Level Washington Center
04:15PM 38.4108 -77.7300 219° Southwest 277 319 32,000  Level Washington Center
04:16PM 38.3533 -77.7944 221° Southwest 277 319 32,000  Level Washington Center
04:17PM 38.2939 -77.8536 218° Southwest 277 319 32,000  Level Washington Center
04:18PM 38.2383 -77.9181 222° Southwest 277 319 32,000  Level Washington Center
04:19PM 38.1786 -77.9797 219° Southwest 277 319 32,000  Level Washington Center
04:20PM 38.1192 -78.0411 219° Southwest 277 319 32,000  Level Washington Center
04:21PM 38.0614 -78.1025 220° Southwest 277 319 32,000  Level Washington Center
04:22PM 38.0039 -78.1639 220° Southwest 277 319 32,000  Level Washington Center
04:23PM 37.9400 -78.2275 218° Southwest 277 319 32,000  Level Washington Center
04:24PM 37.8803 -78.2858 218° Southwest 277 319 32,000  Level Washington Center
04:25PM 37.8228 -78.3392 216° Southwest 282 325 32,000  Level Washington Center
04:26PM 37.7631 -78.3972 218° Southwest 282 325 32,000  Level Washington Center
04:27PM 37.7033 -78.4528 216° Southwest 282 325 32,000  Level Washington Center
04:28PM 37.6392 -78.5108 216° Southwest 282 325 32,000  Level Washington Center
04:29PM 37.5794 -78.5686 217° Southwest 282 325 32,000  Level Washington Center
04:30PM 37.5133 -78.6317 217° Southwest 282 325 32,000  Level Washington Center
04:31PM 37.4514 -78.6892 216° Southwest 282 325 32,000  Level Washington Center
04:32PM 37.3914 -78.7469 217° Southwest 282 325 32,000  Level Washington Center
04:33PM 37.3314 -78.8019 216° Southwest 277 319 32,000  Level Washington Center
04:34PM 37.2736 -78.8544 216° Southwest 277 319 32,000  Level Washington Center
04:35PM 37.2139 -78.9092 216° Southwest 277 319 32,000  Level Washington Center
04:36PM 37.1539 -78.9664 217° Southwest 277 319 32,000  Level Washington Center
04:37PM 37.0917 -79.0211 215° Southwest 277 319 32,000  Level Washington Center
04:38PM 37.0317 -79.0808 218° Southwest 277 319 32,000  Level Washington Center
04:39PM 36.9631 -79.1428 216° Southwest 282 325 32,000  Level Washington Center
04:40PM 36.8989 -79.1942 213° Southwest 282 325 32,000  Level Washington Center
04:41PM 36.8308 -79.2378 207° Southwest 282 325 32,000  Level Washington Center
04:42PM 36.7606 -79.2811 206° Southwest 282 325 32,000  Level Washington Center
04:43PM 36.6925 -79.3272 209° Southwest 282 325 32,000  Level Washington Center
04:44PM 36.6308 -79.3656 207° Southwest 282 325 32,000  Level Washington Center
04:45PM 36.5606 -79.4089 206° Southwest 282 325 32,000  Level Washington Center
04:48PM 36.3308 -79.5519 207° Southwest 275 316 32,000  Level Atlanta Center
04:49PM 36.2575 -79.5997 208° Southwest 275 316 32,000  Level Atlanta Center
04:50PM 36.1881 -79.6422 206° Southwest 275 316 32,000  Level Atlanta Center
04:51PM 36.1208 -79.6844 207° Southwest 275 316 32,000  Level Atlanta Center
04:52PM 36.0533 -79.7264 207° Southwest 275 316 32,000  Level Atlanta Center
04:53PM 35.9922 -79.7656 207° Southwest 275 316 32,000  Level Atlanta Center
04:54PM 35.9203 -79.7978 200° South 281 323 32,000  Level Atlanta Center
04:55PM 35.8483 -79.8269 198° South 281 323 32,000  Level Atlanta Center
04:56PM 35.7744 -79.8592 199° South 281 323 32,000  Level Atlanta Center
04:57PM 35.6919 -79.8914 198° South 281 323 32,000  Level Atlanta Center
04:58PM 35.6161 -79.9311 203° Southwest 288 331 32,000  Level Atlanta Center
04:59PM 35.5567 -79.9594 201° Southwest 288 331 32,000  Level Atlanta Center
05:01PM 35.4003 -80.0258 198° South 283 326 32,000  Level Atlanta Center
05:02PM 35.3242 -80.0600 200° South 288 331 32,000  Level Atlanta Center
05:03PM 35.2481 -80.0917 199° South 288 331 32,000  Level Atlanta Center
05:04PM 35.1717 -80.1233 199° South 288 331 32,000  Level Atlanta Center
05:06PM 35.0483 -80.1769 200° South 282 325 32,000  Level Jacksonville Center
05:07PM 34.9719 -80.2100 200° South 288 331 32,000  Level Jacksonville Center
05:08PM 34.8914 -80.2428 198° South 288 331 32,000  Level Jacksonville Center
05:09PM 34.8147 -80.2756 199° South 288 331 32,000  Level Jacksonville Center
05:10PM 34.7508 -80.3028 199° South 288 331 32,000  Level Jacksonville Center
05:11PM 34.6742 -80.3378 201° Southwest 288 331 32,000  Level Jacksonville Center
05:12PM 34.5978 -80.3678 198° South 288 331 32,000  Level Jacksonville Center
05:13PM 34.5233 -80.4003 200° South 288 331 32,000  Level Jacksonville Center
05:14PM 34.4467 -80.4300 198° South 288 331 32,000  Level Jacksonville Center
05:15PM 34.3722 -80.4625 200° South 288 331 32,000  Level Jacksonville Center
05:16PM 34.2956 -80.4947 199° South 288 331 32,000  Level Jacksonville Center
05:17PM 34.2192 -80.5294 201° Southwest 288 331 32,000  Level Jacksonville Center
05:18PM 34.1425 -80.5592 198° South 288 331 32,000  Level Jacksonville Center
05:19PM 34.0658 -80.5914 199° South 288 331 32,000  Level Jacksonville Center
05:20PM 33.9914 -80.6233 200° South 288 331 32,000  Level Jacksonville Center
05:22PM 33.8358 -80.6872 198° South 288 331 32,000  Level Jacksonville Center
05:23PM 33.7572 -80.7217 200° South 288 331 32,000  Level Jacksonville Center
05:24PM 33.6783 -80.7536 199° South 293 337 32,000  Level Jacksonville Center
05:25PM 33.5997 -80.7856 199° South 298 343 32,000  Level Jacksonville Center
05:26PM 33.5208 -80.8172 199° South 303 349 32,000  Level Jacksonville Center
05:27PM 33.4317 -80.8517 198° South 303 349 32,000  Level Jacksonville Center
05:28PM 33.3531 -80.8858 200° South 303 349 32,000  Level Jacksonville Center
05:29PM 33.2742 -80.9200 200° South 303 349 32,000  Level Jacksonville Center
05:30PM 33.1953 -80.9489 197° South 303 349 32,000  Level Jacksonville Center
05:31PM 33.1144 -80.9806 198° South 303 349 32,000  Level Jacksonville Center
05:32PM 33.0356 -81.0144 200° South 303 349 32,000  Level Jacksonville Center
05:33PM 32.9547 -81.0483 199° South 303 349 32,000  Level Jacksonville Center
05:34PM 32.8758 -81.0794 198° South 308 354 32,000  Level Jacksonville Center
05:35PM 32.7928 -81.1133 199° South 308 354 32,000  Level Jacksonville Center
05:36PM 32.7078 -81.1469 198° South 308 354 32,000  Level Jacksonville Center
05:37PM 32.6331 -81.1756 198° South 308 354 32,000  Level Jacksonville Center
05:38PM 32.5417 -81.2144 200° South 314 361 32,000  Level Jacksonville Center
05:39PM 32.4586 -81.2478 199° South 324 373 32,000  Level Jacksonville Center
05:40PM 32.3733 -81.2789 197° South 324 373 32,000  Level Jacksonville Center
05:41PM 32.2861 -81.3150 199° South 324 373 32,000  Level Jacksonville Center
05:42PM 32.2031 -81.3483 199° South 324 373 32,000  Level Jacksonville Center
05:43PM 32.1178 -81.3817 198° South 324 373 32,000  Level Jacksonville Center
05:44PM 32.0328 -81.4172 200° South 324 373 32,000  Level Jacksonville Center
05:45PM 31.9475 -81.4528 199° South 324 373 32,000  Level Jacksonville Center
05:46PM 31.8728 -81.4833 199° South 324 373 32,000  Level Jacksonville Center
05:47PM 31.7792 -81.5192 198° South 324 373 32,000  Level Jacksonville Center
05:48PM 31.7022 -81.5494 199° South 330 380 32,000  Level Jacksonville Center
05:49PM 31.6106 -81.5850 198° South 323 372 32,000  Level Jacksonville Center
05:50PM 31.5294 -81.6153 198° South 323 372 32,000  Level Jacksonville Center
05:51PM 31.4589 -81.6553 206° Southwest 315 362 32,000  Level Jacksonville Center
05:52PM 31.3717 -81.7028 205° Southwest 309 356 32,000  Level Jacksonville Center
05:53PM 31.2822 -81.7306 195° South 330 380 32,000  Level Jacksonville Center
05:54PM 31.1928 -81.7561 194° South 330 380 32,000  Level Jacksonville Center
05:55PM 31.1031 -81.7814 194° South 341 392 32,000  Level Jacksonville Center
05:56PM 31.0136 -81.8067 194° South 341 392 32,000  Level Jacksonville Center
05:57PM 30.9219 -81.8342 194° South 336 387 32,000  Level Jacksonville Center
05:58PM 30.8322 -81.8594 194° South 336 387 32,000  Level Jacksonville Center
05:59PM 30.7406 -81.8872 195° South 336 387 32,000  Level Jacksonville Center
06:00PM 30.6511 -81.9122 194° South 336 387 32,000  Level Jacksonville Center
06:02PM 30.4678 -81.9622 181° South 336 387 32,000  Level Jacksonville Center
06:03PM 30.3761 -81.9897 195° South 336 387 32,000  Level Jacksonville Center
06:05PM 30.1928 -82.0419 185° South 333 383 32,000  Level Jacksonville Center
06:06PM 30.1031 -82.0692 195° South 343 395 32,000  Level Jacksonville Center
06:07PM 30.0219 -82.0936 195° South 338 389 32,000 -180 Level Jacksonville Center
06:08PM 29.9322 -82.1208 195° South 338 389 31,700 -900 Descending Jacksonville Center
06:09PM 29.8342 -82.1481 194° South 345 397 30,200 -1,440 Descending Jacksonville Center
06:10PM 29.7322 -82.1750 193° South 365 420 28,900 -1,200 Descending Jacksonville Center
06:11PM 29.6342 -82.2019 193° South 365 420 27,800 -1,200 Descending Jacksonville Center
06:12PM 29.5444 -82.2264 193° South 357 411 26,600 -1,380 Descending Jacksonville Center
06:13PM 29.4653 -82.2533 197° South 326 375 25,100 -1,500 Descending Jacksonville Center
06:14PM 29.3797 -82.2753 193° South 313 360 23,600 -1,500 Descending Jacksonville Center
06:15PM 29.2964 -82.2997 194° South 313 360 22,100 -1,560 Descending Jacksonville Center
06:16PM 29.2131 -82.3217 193° South 313 360 20,500 -1,620 Descending Jacksonville Center
06:17PM 29.1317 -82.3458 195° South 318 366 18,900 -1,680 Descending Jacksonville Center
06:18PM 29.0547 -82.3700 195° South 307 353 17,200 -1,680 Descending Jacksonville Center
06:19PM 28.9775 -82.3917 194° South 301 346 15,600 -1,620 Descending Jacksonville Center
06:20PM 28.9003 -82.4111 192° South 296 341 14,000 -840 Descending Jacksonville Center
06:22PM 28.7333 -82.4833 201° Southwest 274 315 12,900 -480 Descending Tampa TRACON
06:23PM 28.6667 -82.5167 204° Southwest 268 308 12,500 -780 Descending Tampa TRACON
06:24PM 28.6000 -82.5667 213° Southwest 266 306 11,400 -1,200 Descending Tampa TRACON
06:25PM 28.5333 -82.6000 204° Southwest 271 312 10,100 -1,380 Descending Tampa TRACON
06:26PM 28.4833 -82.6500 221° Southwest 258 297 8,700 -1,500 Descending Tampa TRACON
06:27PM 28.4167 -82.6833 204° Southwest 247 284 7,200 -1,560 Descending Tampa TRACON
06:28PM 28.3667 -82.7167 210° Southwest 240 276 5,800 -1,440 Descending Tampa TRACON
06:30PM 28.2333 -82.7333 177° South 238 274 3,000 -960 Descending Tampa TRACON
06:31PM 28.1667 -82.7333 180° South 225 259 3,000 -180 Level Tampa TRACON
06:32PM 28.1000 -82.7167 168° South 226 260 2,700 -300 Descending Tampa TRACON
06:33PM 28.0500 -82.7167 180° South 146 168 2,400 -540 Descending Tampa TRACON
06:34PM 28.0167 -82.7000 156° South 140 161 1,600 -720 Descending Tampa TRACON
06:35PM 27.9667 -82.7000 180° South 145 167 1,000 -600 Descending Tampa TRACON
06:36PM 27.9500 -82.7000 180° South 113 130 500 -540 Descending Tampa TRACON